createdAt,value
2018-07-04T00:02:19.488Z,92.28
2018-07-04T00:04:58.174Z,92.96
2018-07-04T00:07:36.850Z,93.49
2018-07-04T00:10:15.625Z,93.96
2018-07-04T00:12:54.257Z,94.02
2018-07-04T00:15:32.745Z,94.42
2018-07-04T00:18:11.420Z,94.49
2018-07-04T00:20:49.970Z,94.99
2018-07-04T00:23:28.578Z,94.82
2018-07-04T00:26:07.194Z,94.70
2018-07-04T00:28:45.756Z,95.39
2018-07-04T00:31:24.429Z,95.62
2018-07-04T00:34:03.165Z,95.34
2018-07-04T00:36:41.833Z,95.89
2018-07-04T00:39:20.433Z,96.03
2018-07-04T00:41:59.064Z,96.20
2018-07-04T00:44:37.624Z,95.65
2018-07-04T00:47:16.395Z,95.21
2018-07-04T00:49:54.886Z,94.86
2018-07-04T00:52:33.402Z,94.17
2018-07-04T00:55:11.912Z,94.97
2018-07-04T00:57:50.489Z,95.86
2018-07-04T01:00:29.034Z,95.62
2018-07-04T01:03:07.697Z,96.43
2018-07-04T01:05:46.382Z,96.27
2018-07-04T01:08:25.042Z,96.21
2018-07-04T01:11:04.034Z,95.95
2018-07-04T01:13:42.567Z,95.88
2018-07-04T01:16:20.969Z,95.65
2018-07-04T01:18:59.637Z,95.17
2018-07-04T01:21:38.076Z,94.68
2018-07-04T01:24:16.921Z,94.67
2018-07-04T01:26:55.606Z,95.19
2018-07-04T01:29:34.351Z,94.78
2018-07-04T01:32:12.953Z,95.97
2018-07-04T01:34:51.511Z,96.50
2018-07-04T01:37:30.065Z,97.27
2018-07-04T01:40:08.550Z,97.14
2018-07-04T01:42:47.101Z,97.15
2018-07-04T01:45:25.814Z,96.84
2018-07-04T01:48:04.470Z,98.09
2018-07-04T01:50:43.040Z,97.05
2018-07-04T01:53:21.722Z,98.27
2018-07-04T01:56:00.320Z,96.83
2018-07-04T01:58:38.953Z,97.10
2018-07-04T02:01:17.605Z,97.92
2018-07-04T02:03:56.216Z,98.12
2018-07-04T02:06:34.765Z,97.85
2018-07-04T02:09:13.514Z,97.52
2018-07-04T02:11:52.209Z,97.73
2018-07-04T02:14:30.949Z,98.24
2018-07-04T02:17:09.713Z,97.99
2018-07-04T02:19:48.317Z,98.47
2018-07-04T02:22:26.888Z,98.21
2018-07-04T02:25:05.398Z,98.54
2018-07-04T02:27:43.924Z,100.00
2018-07-04T02:30:22.409Z,99.05
2018-07-04T02:33:00.997Z,97.92
2018-07-04T02:35:39.726Z,98.72
2018-07-04T02:38:18.286Z,99.59
2018-07-04T02:40:56.796Z,100.00
2018-07-04T02:43:35.334Z,99.74
2018-07-04T02:46:18.554Z,99.58
2018-07-04T02:48:57.274Z,98.86
2018-07-04T02:51:35.892Z,98.43
2018-07-04T02:54:14.447Z,99.15
2018-07-04T02:56:53.070Z,97.55
2018-07-04T02:59:33.379Z,96.29
2018-07-04T03:02:13.163Z,98.25
2018-07-04T03:04:55.814Z,99.33
2018-07-04T03:07:36.566Z,98.38
2018-07-04T03:10:17.661Z,98.06
2018-07-04T03:12:56.449Z,97.83
2018-07-04T03:15:35.005Z,97.77
2018-07-04T03:18:13.873Z,98.20
2018-07-04T03:20:52.514Z,98.84
2018-07-04T03:23:31.531Z,99.58
2018-07-04T03:26:10.105Z,99.41
2018-07-04T03:28:48.797Z,98.95
2018-07-04T03:31:27.463Z,98.98
2018-07-04T03:34:06.197Z,99.47
2018-07-04T03:36:44.688Z,98.27
2018-07-04T03:39:23.544Z,98.50
2018-07-04T03:42:02.218Z,99.06
2018-07-04T03:44:40.806Z,99.69
2018-07-04T03:47:19.426Z,99.76
2018-07-04T03:49:57.956Z,99.77
2018-07-04T03:52:36.442Z,99.64
2018-07-04T03:55:14.870Z,98.97
2018-07-04T03:57:53.578Z,99.55
2018-07-04T04:00:32.004Z,99.53
2018-07-04T04:03:10.738Z,98.43
2018-07-04T04:05:49.229Z,98.30
2018-07-04T04:08:27.851Z,98.46
2018-07-04T04:11:06.434Z,97.58
2018-07-04T04:13:45.085Z,97.55
2018-07-04T04:16:23.805Z,96.93
2018-07-04T04:19:02.544Z,98.96
2018-07-04T04:21:41.339Z,99.95
2018-07-04T04:24:19.933Z,100.00
2018-07-04T04:26:58.576Z,100.00
2018-07-04T04:29:37.335Z,99.63
2018-07-04T04:32:16.006Z,99.88
2018-07-04T04:34:54.585Z,100.00
2018-07-04T04:37:33.268Z,100.00
2018-07-04T04:40:11.830Z,99.68
2018-07-04T04:42:50.551Z,98.37
2018-07-04T04:45:29.176Z,98.54
2018-07-04T04:48:07.772Z,98.57
2018-07-04T04:50:46.361Z,98.83
2018-07-04T04:53:25.197Z,98.56
2018-07-04T04:56:03.899Z,97.19
2018-07-04T04:58:42.527Z,96.52
2018-07-04T05:01:21.313Z,97.85
2018-07-04T05:03:59.905Z,98.30
2018-07-04T05:06:38.628Z,97.96
2018-07-04T05:09:17.313Z,98.16
2018-07-04T05:11:55.965Z,97.60
2018-07-04T05:14:34.529Z,97.72
2018-07-04T05:17:13.154Z,96.58
2018-07-04T05:19:51.708Z,95.77
2018-07-04T05:22:30.341Z,95.08
2018-07-04T05:25:09.597Z,95.26
2018-07-04T05:27:48.250Z,96.22
2018-07-04T05:30:26.933Z,96.37
2018-07-04T05:33:05.554Z,95.40
2018-07-04T05:35:44.193Z,95.28
2018-07-04T05:38:22.887Z,94.62
2018-07-04T05:41:01.363Z,94.93
2018-07-04T05:43:39.974Z,94.50
2018-07-04T05:46:18.461Z,94.25
2018-07-04T05:48:57.157Z,93.58
2018-07-04T05:51:35.843Z,93.17
2018-07-04T05:54:14.518Z,92.08
2018-07-04T05:56:53.131Z,91.66
2018-07-04T05:59:31.749Z,91.46
2018-07-04T06:02:10.312Z,90.28
2018-07-04T06:04:48.946Z,90.69
2018-07-04T06:07:27.568Z,89.08
2018-07-04T06:10:06.068Z,89.77
2018-07-04T06:12:44.742Z,89.56
2018-07-04T06:15:23.346Z,88.24
2018-07-04T06:18:02.044Z,88.42
2018-07-04T06:20:40.641Z,87.88
2018-07-04T06:23:19.256Z,86.21
2018-07-04T06:25:57.921Z,86.65
2018-07-04T06:28:36.592Z,85.53
2018-07-04T06:31:15.218Z,85.79
2018-07-04T06:33:54.807Z,86.53
2018-07-04T06:36:33.288Z,84.82
2018-07-04T06:38:59.464Z,84.77
2018-07-04T06:41:25.533Z,85.43
2018-07-04T06:43:52.659Z,84.19
2018-07-04T06:46:18.730Z,82.91
2018-07-04T06:48:44.813Z,81.70
2018-07-04T06:51:10.884Z,81.85
2018-07-04T06:53:36.972Z,81.72
2018-07-04T06:56:04.897Z,80.32
2018-07-04T06:58:30.984Z,80.16
2018-07-04T07:00:57.054Z,80.92
2018-07-04T07:03:35.661Z,80.35
2018-07-04T07:06:16.143Z,80.20
2018-07-04T07:08:55.087Z,79.90
2018-07-04T07:11:33.681Z,79.48
2018-07-04T07:14:12.591Z,80.47
2018-07-04T07:16:51.084Z,80.18
2018-07-04T07:19:29.845Z,77.87
2018-07-04T07:22:08.570Z,78.19
2018-07-04T07:24:47.279Z,76.47
2018-07-04T07:27:25.918Z,75.99
2018-07-04T07:30:04.520Z,75.32
2018-07-04T07:32:43.096Z,75.67
2018-07-04T07:35:21.718Z,74.76
2018-07-04T07:38:00.572Z,74.30
2018-07-04T07:40:39.209Z,72.30
2018-07-04T07:43:18.026Z,71.55
2018-07-04T07:45:56.570Z,70.50
2018-07-04T07:48:35.159Z,71.59
2018-07-04T07:51:13.781Z,71.14
2018-07-04T07:53:52.422Z,70.43
2018-07-04T07:56:31.019Z,70.01
2018-07-04T07:59:09.701Z,69.79
2018-07-04T08:01:48.226Z,68.93
2018-07-04T08:04:26.862Z,66.32
2018-07-04T08:07:05.522Z,66.71
2018-07-04T08:09:44.173Z,66.43
2018-07-04T08:12:22.849Z,68.01
2018-07-04T08:15:01.406Z,68.31
2018-07-04T08:17:39.838Z,66.15
2018-07-04T08:20:18.384Z,66.92
2018-07-04T08:22:56.913Z,68.23
2018-07-04T08:25:35.654Z,66.68
2018-07-04T08:28:14.391Z,65.95
2018-07-04T08:30:52.949Z,66.17
2018-07-04T08:33:31.555Z,66.21
2018-07-04T08:36:09.944Z,66.15
2018-07-04T08:38:48.698Z,66.48
2018-07-04T08:41:27.297Z,66.07
2018-07-04T08:44:05.905Z,64.80
2018-07-04T08:47:48.000Z,64.15
2018-07-04T08:50:26.666Z,63.32
2018-07-04T08:53:05.225Z,62.94
2018-07-04T08:55:43.844Z,63.94
2018-07-04T08:58:22.563Z,61.65
2018-07-04T09:01:01.153Z,62.32
2018-07-04T09:03:39.846Z,61.67
2018-07-04T09:06:18.401Z,61.34
2018-07-04T09:08:57.193Z,59.04
2018-07-04T09:11:35.811Z,59.84
2018-07-04T09:14:14.664Z,59.85
2018-07-04T09:16:53.406Z,59.76
2018-07-04T09:19:32.096Z,60.99
2018-07-04T09:22:10.755Z,58.54
2018-07-04T09:24:49.160Z,56.53
2018-07-04T09:27:27.882Z,57.13
2018-07-04T09:30:06.482Z,56.01
2018-07-04T09:32:45.071Z,55.80
2018-07-04T09:35:23.540Z,55.94
2018-07-04T09:38:02.179Z,54.83
2018-07-04T09:40:40.669Z,54.80
2018-07-04T09:43:19.473Z,53.64
2018-07-04T09:45:57.982Z,50.95
2018-07-04T09:48:36.652Z,52.32
2018-07-04T09:51:15.565Z,52.27
2018-07-04T09:53:54.183Z,51.88
2018-07-04T09:56:32.964Z,51.83
2018-07-04T09:59:11.558Z,51.85
2018-07-04T10:01:50.077Z,50.91
2018-07-04T10:04:28.717Z,50.59
2018-07-04T10:07:07.209Z,49.40
2018-07-04T10:09:45.774Z,50.25
2018-07-04T10:12:24.472Z,50.33
2018-07-04T10:15:03.146Z,47.33
2018-07-04T10:17:41.662Z,47.27
2018-07-04T10:20:20.248Z,48.39
2018-07-04T10:22:59.176Z,49.67
2018-07-04T10:25:37.666Z,48.09
2018-07-04T10:28:16.417Z,47.01
2018-07-04T10:30:55.097Z,47.28
2018-07-04T10:33:33.829Z,47.75
2018-07-04T10:36:12.426Z,49.18
2018-07-04T10:38:51.069Z,44.79
2018-07-04T10:41:29.809Z,43.75
2018-07-04T10:44:08.605Z,42.87
2018-07-04T10:46:47.257Z,41.54
2018-07-04T10:49:25.849Z,42.38
2018-07-04T10:52:04.696Z,42.86
2018-07-04T10:54:43.220Z,44.25
2018-07-04T10:57:21.829Z,43.72
2018-07-04T11:00:00.446Z,43.18
2018-07-04T11:02:39.070Z,42.12
2018-07-04T11:05:17.586Z,41.94
2018-07-04T11:07:56.265Z,40.48
2018-07-04T11:10:34.900Z,39.80
2018-07-04T11:13:13.554Z,39.44
2018-07-04T11:15:52.215Z,41.35
2018-07-04T11:18:30.801Z,42.50
2018-07-04T11:21:09.389Z,41.04
2018-07-04T11:23:48.011Z,40.63
2018-07-04T11:26:26.656Z,41.12
2018-07-04T11:29:05.266Z,39.48
2018-07-04T11:31:43.808Z,42.20
2018-07-04T11:34:22.474Z,42.13
2018-07-04T11:37:01.053Z,41.91
2018-07-04T11:39:39.591Z,42.22
2018-07-04T11:42:18.283Z,42.05
2018-07-04T11:44:56.942Z,41.92
2018-07-04T11:47:23.304Z,42.03
2018-07-04T11:49:49.372Z,42.79
2018-07-04T11:52:15.440Z,42.91
2018-07-04T11:54:41.525Z,42.99
2018-07-04T11:57:07.612Z,43.71
2018-07-04T11:59:33.676Z,42.96
2018-07-04T12:01:59.756Z,42.53
2018-07-04T12:04:38.349Z,44.04
2018-07-04T12:07:09.212Z,42.18
2018-07-04T12:09:36.875Z,38.81
2018-07-04T12:12:02.946Z,38.99
2018-07-04T12:14:29.430Z,40.55
2018-07-04T12:16:55.749Z,40.42
2018-07-04T12:19:21.860Z,40.51
2018-07-04T12:21:47.953Z,40.10
2018-07-04T12:24:14.065Z,38.55
2018-07-04T12:26:40.200Z,38.92
2018-07-04T12:29:06.297Z,37.64
2018-07-04T12:31:32.507Z,37.90
2018-07-04T12:33:58.572Z,38.27
2018-07-04T12:36:24.638Z,38.09
2018-07-04T12:38:50.717Z,37.84
2018-07-04T12:41:16.769Z,38.38
2018-07-04T12:43:43.151Z,38.20
2018-07-04T12:46:09.214Z,36.21
2018-07-04T12:48:35.310Z,34.76
2018-07-04T12:51:01.739Z,33.24
2018-07-04T12:53:27.798Z,35.07
2018-07-04T12:56:06.421Z,34.64
2018-07-04T12:58:45.077Z,32.00
2018-07-04T13:01:23.697Z,33.71
2018-07-04T13:04:02.365Z,33.00
2018-07-04T13:06:41.045Z,33.39
2018-07-04T13:09:19.743Z,32.58
2018-07-04T13:11:58.359Z,32.05
2018-07-04T13:14:36.972Z,31.20
2018-07-04T13:17:15.596Z,30.48
2018-07-04T13:19:54.225Z,30.04
2018-07-04T13:22:32.878Z,31.32
2018-07-04T13:25:11.784Z,31.92
2018-07-04T13:27:50.485Z,32.02
2018-07-04T13:30:29.141Z,27.90
2018-07-04T13:33:07.870Z,30.35
2018-07-04T13:35:46.585Z,29.72
2018-07-04T13:38:25.202Z,29.65
2018-07-04T13:41:03.812Z,30.78
2018-07-04T13:43:42.493Z,31.82
2018-07-04T13:46:21.092Z,31.54
2018-07-04T13:48:59.748Z,31.98
2018-07-04T13:51:38.725Z,30.92
2018-07-04T13:54:17.468Z,30.74
2018-07-04T13:56:55.893Z,29.97
2018-07-04T13:59:34.590Z,29.52
2018-07-04T14:02:13.254Z,28.88
2018-07-04T14:04:51.793Z,30.70
2018-07-04T14:07:30.394Z,30.00
2018-07-04T14:10:09.065Z,29.50
2018-07-04T14:12:47.633Z,28.36
2018-07-04T14:15:26.537Z,29.27
2018-07-04T14:18:05.192Z,29.86
2018-07-04T14:20:43.864Z,29.62
2018-07-04T14:23:22.527Z,30.87
2018-07-04T14:26:01.078Z,31.62
2018-07-04T14:28:39.766Z,31.37
2018-07-04T14:31:18.378Z,28.75
2018-07-04T14:33:57.084Z,29.40
2018-07-04T14:36:35.570Z,30.88
2018-07-04T14:39:14.221Z,31.11
2018-07-04T14:41:52.849Z,32.09
2018-07-04T14:44:31.905Z,31.08
2018-07-04T14:47:10.613Z,30.48
2018-07-04T14:49:49.067Z,29.99
2018-07-04T14:52:27.871Z,30.46
2018-07-04T14:55:06.999Z,32.21
2018-07-04T14:57:45.936Z,31.17
2018-07-04T15:00:24.465Z,30.44
2018-07-04T15:03:03.293Z,31.76
2018-07-04T15:05:41.776Z,31.86
2018-07-04T15:08:20.457Z,32.69
2018-07-04T15:11:00.001Z,32.75
2018-07-04T15:13:39.773Z,32.45
2018-07-04T15:16:18.389Z,33.92
2018-07-04T15:18:56.964Z,32.17
2018-07-04T15:21:35.656Z,30.66
2018-07-04T15:24:14.527Z,32.71
2018-07-04T15:26:53.244Z,31.90
2018-07-04T15:29:31.958Z,32.57
2018-07-04T15:32:10.654Z,31.98
2018-07-04T15:34:49.449Z,31.65
2018-07-04T15:37:28.113Z,31.85
2018-07-04T15:40:06.915Z,32.48
2018-07-04T15:42:45.505Z,31.79
2018-07-04T15:45:24.145Z,32.81
2018-07-04T15:48:03.165Z,31.90
2018-07-04T15:50:41.961Z,32.56
2018-07-04T15:53:20.926Z,33.43
2018-07-04T15:55:59.757Z,32.64
2018-07-04T15:58:38.398Z,32.87
2018-07-04T16:01:17.319Z,33.25
2018-07-04T16:03:56.053Z,32.46
2018-07-04T16:06:34.601Z,31.72
2018-07-04T16:09:14.510Z,32.23
2018-07-04T16:11:53.026Z,33.08
2018-07-04T16:14:31.657Z,33.10
2018-07-04T16:17:10.264Z,34.12
2018-07-04T16:19:49.221Z,36.04
2018-07-04T16:22:27.897Z,34.63
2018-07-04T16:25:06.955Z,36.30
2018-07-04T16:27:45.811Z,35.73
2018-07-04T16:30:25.378Z,35.71
2018-07-04T16:33:03.996Z,34.97
2018-07-04T16:35:42.891Z,38.00
2018-07-04T16:38:21.612Z,38.54
2018-07-04T16:41:00.210Z,40.88
2018-07-04T16:43:39.259Z,40.34
2018-07-04T16:46:18.143Z,42.30
2018-07-04T16:48:56.906Z,43.54
2018-07-04T16:51:35.584Z,44.00
2018-07-04T16:54:14.453Z,43.54
2018-07-04T16:56:52.869Z,42.90
2018-07-04T16:59:31.539Z,44.73
2018-07-04T17:02:10.725Z,45.82
2018-07-04T17:04:49.516Z,45.85
2018-07-04T17:07:28.161Z,46.15
2018-07-04T17:10:06.902Z,48.43
2018-07-04T17:12:45.731Z,48.85
2018-07-04T17:15:24.500Z,48.64
2018-07-04T17:18:03.176Z,49.54
2018-07-04T17:20:42.352Z,49.86
2018-07-04T17:23:21.035Z,56.57
2018-07-04T17:25:59.575Z,50.02
2018-07-04T17:28:38.348Z,51.21
2018-07-04T17:31:16.910Z,51.37
2018-07-04T17:33:56.072Z,51.28
2018-07-04T17:36:34.876Z,52.15
2018-07-04T17:39:13.477Z,51.88
2018-07-04T17:41:52.145Z,52.70
2018-07-04T17:44:30.910Z,51.92
2018-07-04T17:47:09.408Z,52.17
2018-07-04T17:49:48.058Z,52.35
2018-07-04T17:52:26.585Z,52.49
2018-07-04T17:55:05.280Z,52.55
2018-07-04T17:57:44.048Z,51.99
2018-07-04T18:00:22.740Z,51.77
2018-07-04T18:03:01.513Z,52.27
2018-07-04T18:05:39.980Z,52.33
2018-07-04T18:08:18.761Z,51.79
2018-07-04T18:10:57.621Z,52.11
2018-07-04T18:13:36.509Z,48.26
2018-07-04T18:16:15.062Z,48.62
2018-07-04T18:18:53.784Z,48.30
2018-07-04T18:21:32.352Z,48.25
2018-07-04T18:24:11.201Z,48.52
2018-07-04T18:26:49.974Z,47.91
2018-07-04T18:29:28.576Z,47.79
2018-07-04T18:32:07.521Z,48.47
2018-07-04T18:34:46.607Z,47.28
2018-07-04T18:37:25.840Z,47.70
2018-07-04T18:40:04.462Z,48.21
2018-07-04T18:42:42.993Z,48.65
2018-07-04T18:45:21.814Z,48.83
2018-07-04T18:48:00.605Z,48.68
2018-07-04T18:50:39.196Z,49.52
2018-07-04T18:53:17.713Z,50.05
2018-07-04T18:55:56.445Z,49.00
2018-07-04T18:58:35.303Z,50.17
2018-07-04T19:01:14.537Z,49.78
2018-07-04T19:03:53.338Z,50.38
2018-07-04T19:06:32.080Z,50.50
2018-07-04T19:09:10.753Z,50.66
2018-07-04T19:11:49.277Z,50.28
2018-07-04T19:14:28.021Z,50.55
2018-07-04T19:17:06.525Z,49.38
2018-07-04T19:19:45.214Z,49.29
2018-07-04T19:22:23.852Z,50.07
2018-07-04T19:25:02.543Z,49.25
2018-07-04T19:27:41.241Z,49.15
2018-07-04T19:30:19.786Z,49.82
2018-07-04T19:32:58.334Z,50.69
2018-07-04T19:35:37.075Z,49.01
2018-07-04T19:38:15.818Z,50.93
2018-07-04T19:40:54.642Z,51.17
2018-07-04T19:43:33.377Z,51.04
2018-07-04T19:46:11.998Z,50.71
2018-07-04T19:48:50.794Z,51.61
2018-07-04T19:51:29.686Z,52.01
2018-07-04T19:54:08.350Z,53.48
2018-07-04T19:56:46.837Z,54.30
2018-07-04T19:59:25.496Z,55.19
2018-07-04T20:02:03.996Z,56.08
2018-07-04T20:04:42.692Z,56.45
2018-07-04T20:07:21.532Z,57.03
2018-07-04T20:10:00.177Z,57.49
2018-07-04T20:12:38.780Z,58.22
2018-07-04T20:15:17.317Z,59.52
2018-07-04T20:17:55.947Z,61.75
2018-07-04T20:20:34.511Z,61.44
2018-07-04T20:23:13.027Z,62.36
2018-07-04T20:25:51.623Z,62.27
2018-07-04T20:28:30.235Z,63.31
2018-07-04T20:31:08.887Z,64.42
2018-07-04T20:33:47.419Z,66.51
2018-07-04T20:36:26.351Z,66.26
2018-07-04T20:39:05.669Z,67.66
2018-07-04T20:41:44.272Z,67.78
2018-07-04T20:44:23.340Z,69.13
2018-07-04T20:47:01.845Z,68.98
2018-07-04T20:49:40.569Z,69.73
2018-07-04T20:52:19.375Z,69.77
2018-07-04T20:54:58.149Z,70.55
2018-07-04T20:57:36.749Z,70.86
2018-07-04T21:00:15.753Z,70.62
2018-07-04T21:02:54.449Z,71.96
2018-07-04T21:05:33.083Z,72.02
2018-07-04T21:08:11.907Z,73.10
2018-07-04T21:10:50.893Z,73.94
2018-07-04T21:13:29.773Z,72.87
2018-07-04T21:16:08.424Z,74.33
2018-07-04T21:18:47.023Z,74.96
2018-07-04T21:21:25.785Z,75.07
2018-07-04T21:24:04.598Z,74.71
2018-07-04T21:26:43.120Z,75.63
2018-07-04T21:29:21.963Z,75.03
2018-07-04T21:32:00.762Z,76.74
2018-07-04T21:34:39.326Z,77.42
2018-07-04T21:37:17.893Z,76.96
2018-07-04T21:39:56.456Z,77.45
2018-07-04T21:42:35.165Z,78.62
2018-07-04T21:45:13.821Z,78.84
2018-07-04T21:47:52.462Z,79.23
2018-07-04T21:50:31.114Z,79.61
2018-07-04T21:53:09.678Z,79.14
2018-07-04T21:55:48.280Z,80.17
2018-07-04T21:58:27.130Z,80.30
2018-07-04T22:01:05.593Z,80.35
2018-07-04T22:03:44.211Z,79.76
2018-07-04T22:06:22.850Z,80.65
2018-07-04T22:09:01.531Z,82.00
2018-07-04T22:11:39.960Z,83.64
2018-07-04T22:14:19.322Z,82.78
2018-07-04T22:16:57.906Z,83.35
2018-07-04T22:19:36.685Z,82.93
2018-07-04T22:22:15.217Z,83.03
2018-07-04T22:24:54.209Z,83.71
2018-07-04T22:27:32.857Z,84.37
2018-07-04T22:30:11.410Z,84.29
2018-07-04T22:32:49.970Z,85.04
2018-07-04T22:35:28.533Z,84.59
2018-07-04T22:38:07.079Z,85.11
2018-07-04T22:40:45.768Z,85.20
2018-07-04T22:43:25.033Z,85.64
2018-07-04T22:46:03.716Z,85.20
2018-07-04T22:48:42.863Z,85.60
2018-07-04T22:51:21.470Z,85.38
2018-07-04T22:54:00.061Z,85.89
2018-07-04T22:56:38.857Z,86.26
2018-07-04T22:59:17.540Z,86.22
2018-07-04T23:01:56.253Z,86.37
2018-07-04T23:04:34.757Z,86.37
2018-07-04T23:07:13.328Z,86.48
2018-07-04T23:09:51.924Z,86.17
2018-07-04T23:12:30.865Z,85.68
2018-07-04T23:15:09.488Z,85.58
2018-07-04T23:17:48.061Z,87.37
2018-07-04T23:20:26.489Z,87.75
2018-07-04T23:23:05.343Z,88.10
2018-07-04T23:25:43.942Z,87.49
2018-07-04T23:28:22.554Z,87.50
2018-07-04T23:31:01.133Z,88.14
2018-07-04T23:33:39.789Z,87.96
2018-07-04T23:36:18.328Z,87.91
2018-07-04T23:38:56.969Z,88.19
2018-07-04T23:41:35.554Z,88.13
2018-07-04T23:44:14.156Z,88.93
2018-07-04T23:46:52.575Z,89.39
2018-07-04T23:49:31.093Z,89.50
2018-07-04T23:52:09.749Z,89.56
2018-07-04T23:54:48.466Z,90.09
2018-07-04T23:57:27.262Z,90.36
